createdAt,value
2019-03-04T00:00:03.151Z,98426.61
2019-03-04T00:03:08.809Z,98440.10
2019-03-04T00:06:10.457Z,98448.91
2019-03-04T00:09:25.063Z,98440.45
2019-03-04T00:16:03.663Z,98447.66
2019-03-04T00:24:57.232Z,98454.33
2019-03-04T00:34:21.834Z,98443.05
2019-03-04T00:37:04.477Z,98431.58
2019-03-04T00:40:24.522Z,98428.86
2019-03-04T00:47:28.280Z,98427.27
2019-03-04T00:50:36.985Z,98435.00
2019-03-04T00:57:45.426Z,98410.66
2019-03-04T01:00:43.272Z,98391.37
2019-03-04T01:03:27.656Z,98394.84
2019-03-04T01:06:30.725Z,98397.28
2019-03-04T01:13:08.075Z,98357.92
2019-03-04T01:16:47.239Z,98351.17
2019-03-04T01:25:46.318Z,98297.91
2019-03-04T01:29:14.014Z,98300.84
2019-03-04T01:32:48.254Z,98276.91
2019-03-04T01:40:16.177Z,98269.00
2019-03-04T01:43:50.754Z,98269.51
2019-03-04T01:46:54.577Z,98258.94
2019-03-04T01:49:47.888Z,98250.95
2019-03-04T01:53:30.769Z,98252.14
2019-03-04T02:00:23.440Z,98238.73
2019-03-04T02:03:05.882Z,98229.20
2019-03-04T02:06:28.859Z,98215.83
2019-03-04T02:09:50.363Z,98210.47
2019-03-04T02:23:27.234Z,98210.47
2019-03-04T02:26:22.706Z,98203.93
2019-03-04T02:39:23.360Z,98149.43
2019-03-04T02:42:54.729Z,98135.75
2019-03-04T02:45:29.572Z,98132.95
2019-03-04T02:48:42.015Z,98133.84
2019-03-04T02:55:27.732Z,98112.82
2019-03-04T02:58:33.721Z,98107.42
2019-03-04T03:01:42.028Z,98107.88
2019-03-04T03:04:34.719Z,98093.40
2019-03-04T03:07:24.869Z,98086.10
2019-03-04T03:10:42.788Z,98063.16
2019-03-04T03:13:28.443Z,98077.27
2019-03-04T03:21:32.813Z,98049.69
2019-03-04T03:24:19.048Z,98063.47
2019-03-04T03:27:30.525Z,98046.62
2019-03-04T03:30:29.753Z,98042.11
2019-03-04T03:34:13.564Z,98022.48
2019-03-04T03:43:56.958Z,98022.36
2019-03-04T03:50:35.283Z,98016.07
2019-03-04T03:57:02.265Z,97998.09
2019-03-04T04:00:02.002Z,97982.17
2019-03-04T04:03:42.945Z,97967.23
2019-03-04T04:07:12.338Z,97963.44
2019-03-04T04:14:06.449Z,97921.43
2019-03-04T04:16:48.977Z,97888.77
2019-03-04T04:20:20.408Z,97860.56
2019-03-04T04:23:04.358Z,97852.22
2019-03-04T04:32:27.558Z,97877.16
2019-03-04T04:36:05.359Z,97881.13
2019-03-04T04:39:14.388Z,97847.81
2019-03-04T04:42:05.235Z,97823.42
2019-03-04T04:45:02.944Z,97817.30
2019-03-04T04:47:50.849Z,97793.57
2019-03-04T04:51:06.015Z,97785.02
2019-03-04T04:54:37.079Z,97784.11
2019-03-04T05:00:48.999Z,97764.42
2019-03-04T05:11:00.662Z,97666.05
2019-03-04T05:17:04.279Z,97708.50
2019-03-04T05:19:59.337Z,97708.19
2019-03-04T05:29:55.383Z,97694.13
2019-03-04T05:32:43.760Z,97702.22
2019-03-04T05:36:27.602Z,97699.17
2019-03-04T05:39:31.937Z,97689.96
2019-03-04T05:48:37.052Z,97651.44
2019-03-04T05:51:19.539Z,97649.52
2019-03-04T05:53:47.015Z,97603.86
2019-03-04T05:56:14.410Z,97596.47
2019-03-04T05:58:41.851Z,97596.86
2019-03-04T06:01:35.879Z,97600.42
2019-03-04T06:04:12.648Z,97599.49
2019-03-04T06:07:01.889Z,97602.52
2019-03-04T06:09:32.093Z,97605.98
2019-03-04T06:11:59.819Z,97580.33
2019-03-04T06:14:27.273Z,97571.72
2019-03-04T06:16:54.648Z,97584.90
2019-03-04T06:19:22.101Z,97578.41
2019-03-04T06:21:49.673Z,97574.22
2019-03-04T06:24:17.124Z,97565.61
2019-03-04T06:26:44.693Z,97545.87
2019-03-04T06:29:12.113Z,97571.02
2019-03-04T06:31:39.513Z,97558.25
2019-03-04T06:34:06.964Z,97545.17
2019-03-04T06:36:34.396Z,97546.68
2019-03-04T06:39:01.833Z,97550.44
2019-03-04T06:41:29.208Z,97525.53
2019-03-04T06:43:56.644Z,97524.59
2019-03-04T06:46:24.053Z,97533.34
2019-03-04T06:48:51.577Z,97510.94
2019-03-04T06:51:32.898Z,97522.89
2019-03-04T06:54:25.648Z,97526.75
2019-03-04T06:57:02.858Z,97520.06
2019-03-04T07:00:06.158Z,97501.39
2019-03-04T07:09:36.729Z,97487.83
2019-03-04T07:12:06.828Z,97465.76
2019-03-04T07:15:16.620Z,97474.09
2019-03-04T07:18:54.099Z,97476.02
2019-03-04T07:21:23.792Z,97482.22
2019-03-04T07:23:51.226Z,97511.05
2019-03-04T07:26:22.733Z,97565.38
2019-03-04T07:28:50.163Z,97679.68
2019-03-04T07:31:17.576Z,97734.05
2019-03-04T07:33:45.028Z,97736.28
2019-03-04T07:36:12.476Z,97721.13
2019-03-04T07:38:51.253Z,97693.19
2019-03-04T07:41:18.628Z,97720.75
2019-03-04T07:43:46.043Z,97726.79
2019-03-04T07:46:13.422Z,97716.30
2019-03-04T07:48:40.812Z,97703.69
2019-03-04T07:51:11.002Z,97703.78
2019-03-04T07:53:46.077Z,97693.33
2019-03-04T07:56:08.103Z,97698.86
2019-03-04T07:58:35.483Z,97693.58
2019-03-04T08:01:03.050Z,97659.23
2019-03-04T08:03:30.463Z,97653.38
2019-03-04T08:05:57.908Z,97663.66
2019-03-04T08:08:25.328Z,97684.06
2019-03-04T08:11:14.328Z,97663.29
2019-03-04T08:13:45.444Z,97658.02
2019-03-04T08:16:13.002Z,97644.70
2019-03-04T08:18:40.593Z,97653.61
2019-03-04T08:21:08.079Z,97647.13
2019-03-04T08:23:35.528Z,97645.00
2019-03-04T08:26:03.559Z,97635.28
2019-03-04T08:28:33.203Z,97620.20
2019-03-04T08:31:00.799Z,97641.08
2019-03-04T08:33:28.180Z,97659.33
2019-03-04T08:35:55.757Z,97665.80
2019-03-04T08:38:23.188Z,97665.77
2019-03-04T08:40:50.780Z,97656.27
2019-03-04T08:43:18.277Z,97662.50
2019-03-04T08:45:45.708Z,97660.79
2019-03-04T08:48:13.163Z,97649.44
2019-03-04T08:50:41.028Z,97643.29
2019-03-04T08:53:08.467Z,97640.73
2019-03-04T08:55:35.955Z,97650.64
2019-03-04T08:58:03.424Z,97645.90
2019-03-04T09:00:30.953Z,97641.06
2019-03-04T09:02:58.433Z,97645.89
2019-03-04T09:05:26.133Z,97657.48
2019-03-04T09:07:53.714Z,97642.64
2019-03-04T09:10:23.212Z,97652.94
2019-03-04T09:12:50.833Z,97661.32
2019-03-04T09:15:18.314Z,97632.31
2019-03-04T09:17:46.213Z,97655.26
2019-03-04T09:20:13.812Z,97658.05
2019-03-04T09:22:41.374Z,97661.23
2019-03-04T09:25:12.245Z,97660.88
2019-03-04T09:27:39.855Z,97651.95
2019-03-04T09:30:08.441Z,97649.88
2019-03-04T09:32:38.178Z,97665.28
2019-03-04T09:35:06.076Z,97687.09
2019-03-04T09:37:33.824Z,97685.70
2019-03-04T09:40:01.329Z,97671.70
2019-03-04T09:42:30.322Z,97656.45
2019-03-04T09:44:57.769Z,97662.31
2019-03-04T09:47:25.308Z,97650.58
2019-03-04T09:49:52.788Z,97639.19
2019-03-04T09:52:20.279Z,97640.47
2019-03-04T09:54:47.720Z,97637.86
2019-03-04T09:57:16.414Z,97647.45
2019-03-04T09:59:44.014Z,97638.63
2019-03-04T10:02:18.088Z,97622.30
2019-03-04T10:05:24.438Z,97573.92
2019-03-04T10:08:33.071Z,97611.33
2019-03-04T10:11:20.329Z,97599.66
2019-03-04T10:14:25.429Z,97590.63
2019-03-04T10:17:34.944Z,97587.70
2019-03-04T10:20:46.503Z,97616.34
2019-03-04T10:23:49.263Z,97583.98
2019-03-04T10:26:55.813Z,97574.40
2019-03-04T10:29:45.153Z,97579.01
2019-03-04T10:32:54.444Z,97568.88
2019-03-04T10:35:52.754Z,97602.45
2019-03-04T10:38:49.843Z,97590.97
2019-03-04T10:42:05.004Z,97621.45
2019-03-04T10:45:02.483Z,97612.24
2019-03-04T10:47:34.173Z,97584.16
2019-03-04T10:50:05.160Z,97567.75
2019-03-04T10:52:42.701Z,97615.48
2019-03-04T10:55:13.540Z,97621.03
2019-03-04T10:57:45.247Z,97600.73
2019-03-04T11:00:16.836Z,97671.39
2019-03-04T11:02:44.308Z,97666.40
2019-03-04T11:05:14.982Z,97696.69
2019-03-04T11:07:45.128Z,97693.58
2019-03-04T11:10:12.815Z,97728.50
2019-03-04T11:12:40.353Z,97719.63
2019-03-04T11:15:17.324Z,97732.28
2019-03-04T11:17:45.413Z,97723.48
2019-03-04T11:20:12.859Z,97712.05
2019-03-04T11:22:50.422Z,97703.06
2019-03-04T11:25:35.727Z,97703.72
2019-03-04T11:28:25.448Z,97696.23
2019-03-04T11:30:57.740Z,97685.52
2019-03-04T11:33:47.069Z,97672.09
2019-03-04T11:36:17.399Z,97669.48
2019-03-04T11:42:09.244Z,97668.28
2019-03-04T11:44:42.849Z,97660.91
2019-03-04T11:47:14.423Z,97656.38
2019-03-04T11:49:42.908Z,97649.12
2019-03-04T11:52:12.842Z,97632.43
2019-03-04T11:54:41.059Z,97637.61
2019-03-04T11:57:08.764Z,97621.85
2019-03-04T11:59:36.273Z,97602.03
2019-03-04T12:02:05.850Z,97623.39
2019-03-04T12:04:33.424Z,97625.14
2019-03-04T12:07:00.919Z,97606.51
2019-03-04T12:09:28.408Z,97603.95
2019-03-04T12:11:55.902Z,97610.95
2019-03-04T12:14:26.208Z,97618.06
2019-03-04T12:16:53.683Z,97622.78
2019-03-04T12:19:22.612Z,97651.59
2019-03-04T12:21:50.143Z,97730.54
2019-03-04T12:24:17.743Z,97772.66
2019-03-04T12:26:45.163Z,97780.36
2019-03-04T12:29:15.429Z,97785.19
2019-03-04T12:32:01.474Z,97768.22
2019-03-04T12:34:29.130Z,97775.08
2019-03-04T12:36:56.829Z,97773.66
2019-03-04T12:39:24.469Z,97768.45
2019-03-04T12:41:55.790Z,97747.91
2019-03-04T12:44:27.288Z,97755.06
2019-03-04T12:46:56.628Z,97767.78
2019-03-04T12:49:32.985Z,97759.48
2019-03-04T12:52:01.944Z,97775.28
2019-03-04T12:54:30.270Z,97781.95
2019-03-04T12:56:59.050Z,97782.87
2019-03-04T12:59:29.089Z,97786.45
2019-03-04T13:01:57.870Z,97789.23
2019-03-04T13:04:26.097Z,97789.11
2019-03-04T13:06:54.549Z,97801.33
2019-03-04T13:09:30.174Z,97820.95
2019-03-04T13:12:03.171Z,97794.97
2019-03-04T13:14:30.990Z,97811.94
2019-03-04T13:16:58.458Z,97814.41
2019-03-04T13:19:26.017Z,97830.89
2019-03-04T13:22:08.275Z,97815.63
2019-03-04T13:24:28.688Z,97825.75
2019-03-04T13:26:56.280Z,97823.77
2019-03-04T13:29:23.999Z,97825.06
2019-03-04T13:31:55.819Z,97837.17
2019-03-04T13:34:26.339Z,97837.48
2019-03-04T13:36:56.579Z,97839.73
2019-03-04T13:39:26.103Z,97846.27
2019-03-04T13:41:55.239Z,97847.20
2019-03-04T13:44:23.055Z,97847.02
2019-03-04T13:49:58.057Z,97853.75
2019-03-04T13:52:57.121Z,97857.27
2019-03-04T13:56:41.070Z,97861.84
2019-03-04T14:00:25.614Z,97871.12
2019-03-04T14:03:24.221Z,97873.43
2019-03-04T14:06:41.142Z,97877.31
2019-03-04T14:10:15.978Z,97899.83
2019-03-04T14:13:42.298Z,97901.70
2019-03-04T14:16:25.999Z,97914.50
2019-03-04T14:22:05.067Z,97930.03
2019-03-04T14:24:32.622Z,97943.81
2019-03-04T14:27:01.052Z,97956.21
2019-03-04T14:29:38.772Z,97963.14
2019-03-04T14:32:15.202Z,97966.37
2019-03-04T14:34:42.712Z,97972.39
2019-03-04T14:37:10.663Z,97973.84
2019-03-04T14:39:42.007Z,97970.00
2019-03-04T14:42:09.447Z,97987.66
2019-03-04T14:44:39.707Z,97989.19
2019-03-04T14:47:08.490Z,97998.81
2019-03-04T14:49:44.472Z,98005.98
2019-03-04T14:53:38.156Z,97994.86
2019-03-04T15:00:15.623Z,98006.98
2019-03-04T15:11:07.976Z,98052.30
2019-03-04T15:14:29.626Z,98038.42
2019-03-04T15:21:06.986Z,98054.11
2019-03-04T15:30:49.022Z,98061.98
2019-03-04T15:33:49.324Z,98073.44
2019-03-04T15:36:28.818Z,98078.81
2019-03-04T15:46:44.532Z,98083.41
2019-03-04T15:50:33.822Z,98084.87
2019-03-04T15:56:58.926Z,98084.56
2019-03-04T16:04:27.330Z,98102.22
2019-03-04T16:10:28.933Z,98127.75
2019-03-04T16:13:37.883Z,98130.05
2019-03-04T16:16:59.586Z,98121.55
2019-03-04T16:19:35.651Z,98143.80
2019-03-04T16:29:26.418Z,98161.62
2019-03-04T16:32:40.906Z,98179.25
2019-03-04T17:25:43.929Z,98309.66
2019-03-04T17:43:41.621Z,98348.27
2019-03-04T17:58:09.820Z,98384.72
2019-03-04T18:01:22.182Z,98384.58
2019-03-04T18:05:55.232Z,98387.22
2019-03-04T18:15:40.857Z,98420.28
2019-03-04T18:35:47.571Z,98431.63
2019-03-04T18:41:09.193Z,98436.36
2019-03-04T18:42:02.668Z,98468.80
2019-03-04T19:09:49.192Z,98490.19
2019-03-04T19:16:40.747Z,98513.02
2019-03-04T19:27:58.816Z,98513.48
2019-03-04T19:43:05.891Z,98514.19
2019-03-04T20:26:13.421Z,98559.40
2019-03-04T20:36:28.638Z,98558.09
2019-03-04T20:47:09.551Z,98561.82
2019-03-04T20:50:40.996Z,98568.80
2019-03-04T20:52:50.916Z,98568.93
2019-03-04T20:56:38.499Z,98577.45
2019-03-04T21:00:04.484Z,98575.17
2019-03-04T21:03:46.311Z,98578.36
2019-03-04T21:06:23.426Z,98581.77
2019-03-04T21:09:02.117Z,98572.34
2019-03-04T21:12:25.220Z,98583.61
2019-03-04T21:19:13.376Z,98586.58
2019-03-04T21:23:14.141Z,98588.08
2019-03-04T21:26:07.031Z,98580.35
2019-03-04T21:37:11.863Z,98611.72
2019-03-04T21:40:38.726Z,98625.06
2019-03-04T21:43:45.376Z,98619.80
2019-03-04T21:56:16.312Z,98619.25
2019-03-04T21:58:02.660Z,98623.82
2019-03-04T22:04:55.206Z,98621.17
2019-03-04T22:07:42.340Z,98620.33
2019-03-04T22:11:24.258Z,98629.42
2019-03-04T22:18:01.256Z,98616.94
2019-03-04T22:28:55.006Z,98615.92
2019-03-04T23:13:10.039Z,98649.78
2019-03-04T23:16:12.478Z,98644.20
2019-03-04T23:18:58.367Z,98653.22
2019-03-04T23:22:20.307Z,98666.97
2019-03-04T23:24:49.083Z,98666.64
2019-03-04T23:27:45.859Z,98670.54
2019-03-04T23:34:56.776Z,98677.86
